createdAt,value
2024-04-12T00:00:41.661Z,100307.8
2024-04-12T00:02:46.868Z,100315.67
2024-04-12T00:03:47.343Z,100312.69
2024-04-12T00:04:47.848Z,100319.08
2024-04-12T00:05:48.213Z,100323.78
2024-04-12T00:06:50.108Z,100316.2
2024-04-12T00:07:48.885Z,100315.18
2024-04-12T00:08:50.028Z,100318.09
2024-04-12T00:09:49.832Z,100316.26
2024-04-12T00:10:50.069Z,100315.53
2024-04-12T00:11:52.202Z,100317.33
2024-04-12T00:12:50.971Z,100318.22
2024-04-12T00:13:54.252Z,100313.87
2024-04-12T00:14:51.756Z,100317.42
2024-04-12T00:15:52.239Z,100315.11
2024-04-12T00:16:52.625Z,100311.14
2024-04-12T00:17:52.900Z,100306.03
2024-04-12T00:18:53.876Z,100303.74
2024-04-12T00:19:53.965Z,100307.41
2024-04-12T00:21:00.158Z,100308.6
2024-04-12T00:21:57.713Z,100313.12
2024-04-12T00:22:58.100Z,100313.52
2024-04-12T00:23:59.015Z,100304.42
2024-04-12T00:24:59.014Z,100312.28
2024-04-12T00:25:59.642Z,100302.92
2024-04-12T00:27:00.437Z,100311.04
2024-04-12T00:28:00.497Z,100305.61
2024-04-12T00:29:00.478Z,100305.36
2024-04-12T00:30:01.063Z,100315.87
2024-04-12T00:31:05.099Z,100306.61
2024-04-12T00:32:06.925Z,100306.59
2024-04-12T00:33:05.328Z,100306.6
2024-04-12T00:34:04.930Z,100308.73
2024-04-12T00:35:05.742Z,100313.05
2024-04-12T00:36:06.950Z,100309.27
2024-04-12T00:37:08.140Z,100313.68
2024-04-12T00:38:07.584Z,100314.89
2024-04-12T00:39:07.035Z,100313.84
2024-04-12T00:40:09.599Z,100315.95
2024-04-12T00:41:08.555Z,100310.92
2024-04-12T00:42:09.940Z,100314.48
2024-04-12T00:43:11.952Z,100313.69
2024-04-12T00:44:11.030Z,100314.12
2024-04-12T00:45:09.968Z,100310.61
2024-04-12T00:46:10.953Z,100313.11
2024-04-12T00:47:14.146Z,100316.45
2024-04-12T00:48:12.879Z,100314.44
2024-04-12T00:49:12.090Z,100312.91
2024-04-12T00:50:12.556Z,100312.39
2024-04-12T00:51:15.083Z,100318.55
2024-04-12T00:52:13.359Z,100313.27
2024-04-12T00:53:14.553Z,100319.83
2024-04-12T00:54:14.070Z,100313.17
2024-04-12T00:55:14.393Z,100319.38
2024-04-12T00:56:17.970Z,100316.15
2024-04-12T00:57:15.533Z,100314.85
2024-04-12T00:58:16.621Z,100314.78
2024-04-12T00:59:16.650Z,100312.9
2024-04-12T01:00:17.070Z,100313.77
2024-04-12T01:01:17.596Z,100312.7
2024-04-12T01:02:17.618Z,100312.39
2024-04-12T01:03:18.740Z,100313.43
2024-04-12T01:04:18.353Z,100315.62
2024-04-12T01:05:20.701Z,100313.61
2024-04-12T01:06:27.275Z,100311.69
2024-04-12T01:07:19.905Z,100315.41
2024-04-12T01:08:20.205Z,100320.25
2024-04-12T01:09:20.512Z,100313.16
2024-04-12T01:10:22.173Z,100317.16
2024-04-12T01:11:22.536Z,100315.23
2024-04-12T01:12:21.974Z,100314.02
2024-04-12T01:13:22.329Z,100310.14
2024-04-12T01:14:22.601Z,100316.28
2024-04-12T01:15:24.036Z,100316.97
2024-04-12T01:16:23.550Z,100318.99
2024-04-12T01:17:23.771Z,100324.42
2024-04-12T01:18:24.384Z,100321.4
2024-04-12T01:19:24.695Z,100317.73
2024-04-12T01:20:24.884Z,100317.55
2024-04-12T01:21:25.842Z,100318.22
2024-04-12T01:22:25.848Z,100319.36
2024-04-12T01:23:26.244Z,100325.59
2024-04-12T01:24:26.464Z,100324.38
2024-04-12T01:25:28.015Z,100321.67
2024-04-12T01:26:28.015Z,100325.56
2024-04-12T01:27:27.822Z,100327.47
2024-04-12T01:28:28.321Z,100325.61
2024-04-12T01:29:28.853Z,100318.77
2024-04-12T01:30:29.165Z,100326.64
2024-04-12T01:31:29.473Z,100312.77
2024-04-12T01:32:29.844Z,100320.44
2024-04-12T01:33:30.637Z,100322.22
2024-04-12T01:34:31.354Z,100316.99
2024-04-12T01:35:31.267Z,100314.59
2024-04-12T01:36:34.573Z,100316.92
2024-04-12T01:37:32.123Z,100319.98
2024-04-12T01:38:33.584Z,100315.4
2024-04-12T01:39:33.011Z,100313.92
2024-04-12T01:40:33.222Z,100313.45
2024-04-12T01:41:34.290Z,100313.28
2024-04-12T01:42:34.052Z,100315.28
2024-04-12T01:43:35.703Z,100307.39
2024-04-12T01:44:34.948Z,100311.71
2024-04-12T01:45:35.407Z,100320.73
2024-04-12T01:46:36.401Z,100327.77
2024-04-12T01:47:36.554Z,100323.72
2024-04-12T01:48:37.505Z,100323.32
2024-04-12T01:49:36.870Z,100324.17
2024-04-12T01:50:37.402Z,100322.06
2024-04-12T01:51:38.624Z,100325.42
2024-04-12T01:52:38.118Z,100330.8
2024-04-12T01:53:39.216Z,100325.98
2024-04-12T01:54:39.059Z,100334.8
2024-04-12T01:55:39.487Z,100331.53
2024-04-12T01:56:40.116Z,100333.3
2024-04-12T01:57:40.300Z,100341
2024-04-12T01:58:41.319Z,100335.44
2024-04-12T01:59:41.215Z,100331.82
2024-04-12T02:00:41.383Z,100341.67
2024-04-12T02:01:42.367Z,100339.55
2024-04-12T02:02:42.452Z,100344.69
2024-04-12T02:03:43.318Z,100348.2
2024-04-12T02:04:43.011Z,100345.28
2024-04-12T02:05:43.547Z,100343.88
2024-04-12T02:06:44.266Z,100346.77
2024-04-12T02:07:44.462Z,100351.42
2024-04-12T02:08:45.040Z,100348.93
2024-04-12T02:09:45.915Z,100351.27
2024-04-12T02:10:46.640Z,100351.27
2024-04-12T02:11:46.844Z,100354.88
2024-04-12T02:12:46.233Z,100344.36
2024-04-12T02:13:46.772Z,100349.78
2024-04-12T02:14:47.085Z,100351.78
2024-04-12T02:15:52.230Z,100350.93
2024-04-12T02:16:49.865Z,100350.07
2024-04-12T02:17:53.724Z,100360.64
2024-04-12T02:18:51.454Z,100356.55
2024-04-12T02:19:51.816Z,100356.36
2024-04-12T02:20:54.616Z,100354.22
2024-04-12T02:21:52.538Z,100355.76
2024-04-12T02:22:53.289Z,100356.14
2024-04-12T02:23:53.420Z,100350.17
2024-04-12T02:24:53.762Z,100354.38
2024-04-12T02:25:58.626Z,100356.22
2024-04-12T02:26:56.200Z,100359.59
2024-04-12T02:27:56.624Z,100353.36
2024-04-12T02:28:56.895Z,100354.38
2024-04-12T02:29:57.327Z,100347.62
2024-04-12T02:30:58.025Z,100342.47
2024-04-12T02:31:58.375Z,100343.1
2024-04-12T02:32:58.844Z,100335.09
2024-04-12T02:34:00.718Z,100343.7
2024-04-12T02:34:59.491Z,100342.41
2024-04-12T02:36:12.491Z,100353.05
2024-04-12T02:37:00.021Z,100355.91
2024-04-12T02:38:00.638Z,100348.45
2024-04-12T02:39:01.393Z,100348.27
2024-04-12T02:40:02.803Z,100349.45
2024-04-12T02:41:01.594Z,100347.53
2024-04-12T02:42:02.358Z,100351.91
2024-04-12T02:43:02.933Z,100344.46
2024-04-12T02:44:04.787Z,100343.25
2024-04-12T02:45:03.374Z,100350.48
2024-04-12T02:46:04.283Z,100344.7
2024-04-12T02:47:04.513Z,100344.8
2024-04-12T02:48:05.751Z,100344.06
2024-04-12T02:49:05.123Z,100338.84
2024-04-12T02:50:06.230Z,100340.25
2024-04-12T02:51:05.828Z,100340.05
2024-04-12T02:52:07.893Z,100343.48
2024-04-12T02:53:06.573Z,100335.32
2024-04-12T02:54:07.026Z,100339.39
2024-04-12T02:55:08.437Z,100338.84
2024-04-12T02:56:09.860Z,100340.91
2024-04-12T02:57:08.318Z,100339.48
2024-04-12T02:58:08.774Z,100335.92
2024-04-12T02:59:08.984Z,100341.48
2024-04-12T03:00:10.864Z,100340.94
2024-04-12T03:02:13.566Z,100332.88
2024-04-12T03:03:12.456Z,100334.23
2024-04-12T03:04:12.581Z,100334.02
2024-04-12T03:05:13.240Z,100334.82
2024-04-12T03:06:14.768Z,100336.75
2024-04-12T03:07:13.860Z,100335.19
2024-04-12T03:08:14.165Z,100337.48
2024-04-12T03:09:14.714Z,100336.2
2024-04-12T03:10:15.396Z,100343.77
2024-04-12T03:11:17.465Z,100343.44
2024-04-12T03:12:15.912Z,100341.7
2024-04-12T03:13:17.468Z,100341.58
2024-04-12T03:14:16.762Z,100350.52
2024-04-12T03:15:17.074Z,100350.22
2024-04-12T03:16:19.047Z,100350.94
2024-04-12T03:17:17.912Z,100361.78
2024-04-12T03:18:18.379Z,100358.05
2024-04-12T03:19:18.836Z,100352.72
2024-04-12T03:20:19.166Z,100357.05
2024-04-12T03:21:21.328Z,100353.55
2024-04-12T03:22:19.880Z,100358.31
2024-04-12T03:23:23.182Z,100361.52
2024-04-12T03:24:21.282Z,100358.66
2024-04-12T03:25:21.135Z,100363.99
2024-04-12T03:26:22.542Z,100356.55
2024-04-12T03:27:22.276Z,100358.95
2024-04-12T03:28:22.374Z,100360.09
2024-04-12T03:29:23.007Z,100357.64
2024-04-12T03:30:23.112Z,100357.95
2024-04-12T03:31:24.035Z,100360.59
2024-04-12T03:32:24.097Z,100363.75
2024-04-12T03:33:24.385Z,100359.52
2024-04-12T03:34:24.948Z,100365.41
2024-04-12T03:35:25.192Z,100357.64
2024-04-12T03:36:26.844Z,100360.03
2024-04-12T03:37:28.787Z,100360.39
2024-04-12T03:38:26.546Z,100359.56
2024-04-12T03:39:27.128Z,100358.19
2024-04-12T03:40:27.576Z,100356.38
2024-04-12T03:41:29.123Z,100357.63
2024-04-12T03:42:28.111Z,100351.85
2024-04-12T03:43:28.819Z,100356.59
2024-04-12T03:44:29.462Z,100352.16
2024-04-12T03:45:32.132Z,100354.3
2024-04-12T03:46:29.667Z,100350.16
2024-04-12T03:47:30.239Z,100348.91
2024-04-12T03:48:30.646Z,100348.19
2024-04-12T03:49:30.921Z,100350.64
2024-04-12T03:50:33.115Z,100344.91
2024-04-12T03:51:31.641Z,100342.61
2024-04-12T03:52:32.170Z,100347.7
2024-04-12T03:53:32.474Z,100345.66
2024-04-12T03:54:32.999Z,100356.39
2024-04-12T03:55:33.454Z,100354.3
2024-04-12T03:56:33.797Z,100355.06
2024-04-12T03:57:34.149Z,100356.25
2024-04-12T03:58:34.658Z,100353.47
2024-04-12T03:59:35.690Z,100353.02
2024-04-12T04:00:35.599Z,100348.28
2024-04-12T04:01:39.926Z,100350.78
2024-04-12T04:02:38.198Z,100347.3
2024-04-12T04:03:38.002Z,100341.38
2024-04-12T04:04:39.628Z,100346.67
2024-04-12T04:05:38.957Z,100355.42
2024-04-12T04:06:39.139Z,100346.41
2024-04-12T04:07:39.573Z,100350.14
2024-04-12T04:08:42.449Z,100358.19
2024-04-12T04:09:40.364Z,100356.42
2024-04-12T04:10:40.781Z,100356.25
2024-04-12T04:11:41.217Z,100351.8
2024-04-12T04:12:42.452Z,100353.97
2024-04-12T04:13:41.827Z,100344.08
2024-04-12T04:14:43.576Z,100349.07
2024-04-12T04:15:51.697Z,100347.91
2024-04-12T04:16:44.310Z,100349.36
2024-04-12T04:17:47.803Z,100345.6
2024-04-12T04:18:46.837Z,100345.03
2024-04-12T04:19:46.167Z,100347.78
2024-04-12T04:20:46.517Z,100345.73
2024-04-12T04:21:46.928Z,100350.85
2024-04-12T04:22:47.323Z,100347.28
2024-04-12T04:23:47.459Z,100341
2024-04-12T04:24:47.871Z,100345.49
2024-04-12T04:25:48.475Z,100345.33
2024-04-12T04:26:48.699Z,100339.8
2024-04-12T04:27:49.227Z,100349.02
2024-04-12T04:28:49.521Z,100350.59
2024-04-12T04:29:50.890Z,100348.45
2024-04-12T04:30:50.340Z,100350.83
2024-04-12T04:31:53.459Z,100349.95
2024-04-12T04:32:51.126Z,100349.02
2024-04-12T04:33:52.307Z,100349.05
2024-04-12T04:34:52.108Z,100348.7
2024-04-12T04:35:52.457Z,100350.06
2024-04-12T04:36:54.681Z,100351.8
2024-04-12T04:37:53.265Z,100354.55
2024-04-12T04:38:53.791Z,100348
2024-04-12T04:39:54.800Z,100345.97
2024-04-12T04:41:00.345Z,100346.62
2024-04-12T04:41:58.252Z,100350.94
2024-04-12T04:42:58.699Z,100355.12
2024-04-12T04:43:58.844Z,100350.91
2024-04-12T04:44:59.333Z,100355.59
2024-04-12T04:46:00.163Z,100354.25
2024-04-12T04:46:59.882Z,100354.13
2024-04-12T04:48:00.458Z,100365.14
2024-04-12T04:49:00.828Z,100357.96
2024-04-12T04:50:01.222Z,100361.2
2024-04-12T04:51:01.606Z,100358.98
2024-04-12T04:52:01.973Z,100360.43
2024-04-12T04:53:02.278Z,100361.02
2024-04-12T04:54:02.827Z,100355.67
2024-04-12T04:55:03.721Z,100357.44
2024-04-12T04:56:04.247Z,100358.12
2024-04-12T04:57:04.855Z,100363.45
2024-04-12T04:58:04.862Z,100360.2
2024-04-12T04:59:04.973Z,100361
2024-04-12T05:00:05.839Z,100364.58
2024-04-12T05:01:05.549Z,100365.4
2024-04-12T05:02:06.169Z,100362.47
2024-04-12T05:03:06.602Z,100362.66
2024-04-12T05:04:06.790Z,100367.14
2024-04-12T05:05:07.064Z,100360.64
2024-04-12T05:06:07.766Z,100363.22
2024-04-12T05:07:08.004Z,100369.35
2024-04-12T05:08:08.418Z,100361.05
2024-04-12T05:09:09.055Z,100370.57
2024-04-12T05:10:09.327Z,100365.89
2024-04-12T05:11:09.640Z,100361.79
2024-04-12T05:12:10.034Z,100361.14
2024-04-12T05:13:10.607Z,100366.41
2024-04-12T05:14:11.219Z,100364.48
2024-04-12T05:15:11.289Z,100363.91
2024-04-12T05:16:11.763Z,100363.51
2024-04-12T05:17:12.074Z,100370.44
2024-04-12T05:18:12.747Z,100367.5
2024-04-12T05:19:12.884Z,100366.81
2024-04-12T05:20:13.318Z,100362.02
2024-04-12T05:21:14.069Z,100364.09
2024-04-12T05:22:15.481Z,100365.6
2024-04-12T05:23:16.374Z,100364.23
2024-04-12T05:24:15.010Z,100363.11
2024-04-12T05:25:16.119Z,100362.86
2024-04-12T05:26:16.016Z,100362.83
2024-04-12T05:27:16.222Z,100368.02
2024-04-12T05:28:16.734Z,100371.25
2024-04-12T05:29:16.957Z,100365.91
2024-04-12T05:30:17.536Z,100365.27
2024-04-12T05:31:17.782Z,100370.28
2024-04-12T05:32:18.304Z,100364.8
2024-04-12T05:33:18.849Z,100362.91
2024-04-12T05:34:18.998Z,100367.4
2024-04-12T05:35:19.444Z,100362.16
2024-04-12T05:36:19.846Z,100360.12
2024-04-12T05:37:20.477Z,100363.23
2024-04-12T05:38:21.105Z,100365.23
2024-04-12T05:39:21.132Z,100368.03
2024-04-12T05:40:21.549Z,100367.46
2024-04-12T05:41:22.169Z,100366.66
2024-04-12T05:42:22.470Z,100370.16
2024-04-12T05:43:23.400Z,100361.58
2024-04-12T05:44:23.922Z,100366.8
2024-04-12T05:45:23.742Z,100364.19
2024-04-12T05:46:24.126Z,100369.81
2024-04-12T05:47:24.427Z,100367.05
2024-04-12T05:48:26.254Z,100366.95
2024-04-12T05:49:25.152Z,100366.56
2024-04-12T05:50:25.768Z,100366.38
2024-04-12T05:51:26.324Z,100364.55
2024-04-12T05:52:26.324Z,100365.36
2024-04-12T05:53:28.062Z,100362.2
2024-04-12T05:54:27.348Z,100362.5
2024-04-12T05:55:27.682Z,100353.62
2024-04-12T05:56:28.119Z,100360.91
2024-04-12T05:57:28.502Z,100359.84
2024-04-12T05:58:29.027Z,100360.34
2024-04-12T05:59:29.570Z,100361.58
2024-04-12T06:00:30.937Z,100361.15
2024-04-12T06:01:30.291Z,100356.51
2024-04-12T06:02:30.655Z,100356.98
2024-04-12T06:03:30.911Z,100357.46
2024-04-12T06:04:31.917Z,100362.34
2024-04-12T06:05:31.739Z,100361.14
2024-04-12T06:06:32.366Z,100359.73
2024-04-12T06:07:33.279Z,100359.06
2024-04-12T06:08:32.883Z,100362.86
2024-04-12T06:09:33.551Z,100365.55
2024-04-12T06:10:33.824Z,100365.94
2024-04-12T06:11:34.295Z,100361.2
2024-04-12T06:12:34.489Z,100359.94
2024-04-12T06:13:35.057Z,100360.6
2024-04-12T06:14:36.963Z,100363.48
2024-04-12T06:15:37.155Z,100365.22
2024-04-12T06:16:36.126Z,100367.86
2024-04-12T06:17:36.709Z,100373.79
2024-04-12T06:18:37.087Z,100366.86
2024-04-12T06:19:40.318Z,100362.74
2024-04-12T06:20:38.290Z,100365.72
2024-04-12T06:21:38.291Z,100364.45
2024-04-12T06:22:38.606Z,100363.31
2024-04-12T06:23:39.257Z,100362.12
2024-04-12T06:24:39.809Z,100357.84
2024-04-12T06:25:42.324Z,100366.2
2024-04-12T06:26:40.625Z,100367.55
2024-04-12T06:27:41.918Z,100364.45
2024-04-12T06:28:41.089Z,100370.67
2024-04-12T06:29:43.611Z,100362.64
2024-04-12T06:30:48.897Z,100368.67
2024-04-12T06:31:47.265Z,100363.3
2024-04-12T06:32:47.033Z,100371.88
2024-04-12T06:33:51.019Z,100369.45
2024-04-12T06:34:48.939Z,100375.69
2024-04-12T06:35:58.195Z,100377.52
2024-04-12T06:36:52.239Z,100372.59
2024-04-12T06:37:54.112Z,100385.28
2024-04-12T06:38:52.342Z,100383.86
2024-04-12T06:39:52.744Z,100381.92
2024-04-12T06:40:53.880Z,100374.71
2024-04-12T06:41:57.077Z,100383.71
2024-04-12T06:42:54.495Z,100376.67
2024-04-12T06:43:55.042Z,100387.59
2024-04-12T06:44:55.567Z,100385.86
2024-04-12T06:46:02.787Z,100384.95
2024-04-12T06:47:00.748Z,100386.69
2024-04-12T06:48:00.846Z,100383.76
2024-04-12T06:49:02.320Z,100383.28
2024-04-12T06:50:01.742Z,100385.81
2024-04-12T06:51:02.402Z,100388.88
2024-04-12T06:52:02.472Z,100387.19
2024-04-12T06:53:02.655Z,100389.09
2024-04-12T06:54:04.568Z,100388.16
2024-04-12T06:55:04.175Z,100393.28
2024-04-12T06:56:05.659Z,100397.93
2024-04-12T06:57:08.397Z,100394.02
2024-04-12T06:58:05.979Z,100403.2
2024-04-12T06:59:06.390Z,100400.5
2024-04-12T07:00:08.060Z,100393.5
2024-04-12T07:01:07.551Z,100393.69
2024-04-12T07:02:10.299Z,100396.59
2024-04-12T07:03:08.040Z,100394.16
2024-04-12T07:04:08.788Z,100394.35
2024-04-12T07:05:08.766Z,100394.64
2024-04-12T07:06:09.228Z,100395.45
2024-04-12T07:07:09.716Z,100393.95
2024-04-12T07:08:10.162Z,100390.69
2024-04-12T07:09:10.738Z,100390.3
2024-04-12T07:10:11.858Z,100397.85
2024-04-12T07:11:13.952Z,100393.8
2024-04-12T07:12:11.752Z,100395.34
2024-04-12T07:13:12.115Z,100393.78
2024-04-12T07:14:12.520Z,100387.3
2024-04-12T07:15:13.506Z,100390.68
2024-04-12T07:16:13.383Z,100394.58
2024-04-12T07:17:15.489Z,100386.37
2024-04-12T07:18:14.414Z,100399.16
2024-04-12T07:19:16.265Z,100388.42
2024-04-12T07:20:15.834Z,100395.78
2024-04-12T07:21:15.472Z,100398.47
2024-04-12T07:22:15.887Z,100392.16
2024-04-12T07:23:17.215Z,100388.8
2024-04-12T07:24:16.862Z,100386.28
2024-04-12T07:25:17.524Z,100386.2
2024-04-12T07:26:17.625Z,100392.8
2024-04-12T07:27:21.981Z,100386.61
2024-04-12T07:28:19.599Z,100397.28
2024-04-12T07:29:19.921Z,100396.42
2024-04-12T07:30:20.487Z,100397.45
2024-04-12T07:31:20.634Z,100399.91
2024-04-12T07:32:21.713Z,100402.27
2024-04-12T07:33:21.579Z,100399.22
2024-04-12T07:34:22.074Z,100404.41
2024-04-12T07:35:22.447Z,100397.23
2024-04-12T07:36:25.664Z,100396.23
2024-04-12T07:37:24.386Z,100388.55
2024-04-12T07:38:23.743Z,100387.8
2024-04-12T07:39:23.981Z,100399.19
2024-04-12T07:40:24.496Z,100397.95
2024-04-12T07:41:24.818Z,100400.02
2024-04-12T07:42:25.217Z,100395.16
2024-04-12T07:43:25.748Z,100397.75
2024-04-12T07:44:26.130Z,100396.61
2024-04-12T07:45:26.969Z,100399.59
2024-04-12T07:46:27.503Z,100398.86
2024-04-12T07:47:28.213Z,100398.86
2024-04-12T07:48:31.869Z,100395.07
2024-04-12T07:49:31.412Z,100402.88
2024-04-12T07:50:31.923Z,100399.44
2024-04-12T07:51:32.341Z,100405.94
2024-04-12T07:52:32.663Z,100401.17
2024-04-12T07:53:33.157Z,100403.02
2024-04-12T07:54:33.799Z,100408.11
2024-04-12T07:55:34.140Z,100407.48
2024-04-12T07:56:34.534Z,100410.87
2024-04-12T07:57:34.937Z,100407.09
2024-04-12T07:58:36.803Z,100407.35
2024-04-12T07:59:35.590Z,100405.27
2024-04-12T08:00:42.364Z,100410.13
2024-04-12T08:01:39.949Z,100409.84
2024-04-12T08:02:40.379Z,100407.64
2024-04-12T08:03:41.222Z,100410.87
2024-04-12T08:04:42.484Z,100403.52
2024-04-12T08:05:41.895Z,100399.86
2024-04-12T08:06:41.964Z,100411.94
2024-04-12T08:07:42.390Z,100416.71
2024-04-12T08:08:42.826Z,100429.17
2024-04-12T08:09:45.162Z,100422.38
2024-04-12T08:10:44.185Z,100420.84
2024-04-12T08:11:45.635Z,100426.53
2024-04-12T08:12:45.086Z,100424.38
2024-04-12T08:13:45.727Z,100428.22
2024-04-12T08:14:46.956Z,100427.77
2024-04-12T08:15:49.204Z,100435.09
2024-04-12T08:16:47.370Z,100435.81
2024-04-12T08:17:47.266Z,100437.89
2024-04-12T08:18:47.697Z,100440.86
2024-04-12T08:19:48.241Z,100438.03
2024-04-12T08:20:48.563Z,100443.81
2024-04-12T08:21:50.983Z,100450.27
2024-04-12T08:22:49.349Z,100449.92
2024-04-12T08:23:49.913Z,100444.33
2024-04-12T08:24:50.205Z,100440.84
2024-04-12T08:25:51.209Z,100450.1
2024-04-12T08:26:59.837Z,100443.63
2024-04-12T08:27:52.386Z,100448.23
2024-04-12T08:28:52.988Z,100443.56
2024-04-12T08:29:53.670Z,100447.36
2024-04-12T08:30:53.694Z,100451.14
2024-04-12T08:32:01.874Z,100441.14
2024-04-12T08:32:55.017Z,100454.64
2024-04-12T08:33:55.343Z,100454.27
2024-04-12T08:34:56.301Z,100450.58
2024-04-12T08:35:55.822Z,100449.3
2024-04-12T08:36:56.305Z,100448.23
2024-04-12T08:37:56.838Z,100455.08
2024-04-12T08:38:56.920Z,100450.82
2024-04-12T08:39:59.082Z,100452.38
2024-04-12T08:41:06.048Z,100448.92
2024-04-12T08:42:01.976Z,100458.38
2024-04-12T08:43:02.816Z,100449.75
2024-04-12T08:44:00.471Z,100444.88
2024-04-12T08:45:02.092Z,100444.13
2024-04-12T08:46:02.924Z,100444.55
2024-04-12T08:47:03.163Z,100448.17
2024-04-12T08:48:02.526Z,100456.23
2024-04-12T08:49:03.670Z,100444.64
2024-04-12T08:50:08.242Z,100458.32
2024-04-12T08:51:10.624Z,100455.59
2024-04-12T08:52:09.100Z,100466.06
2024-04-12T08:53:11.660Z,100460.47
2024-04-12T08:54:10.928Z,100466
2024-04-12T08:55:14.797Z,100465.69
2024-04-12T08:56:14.469Z,100459.69
2024-04-12T08:57:15.022Z,100457.04
2024-04-12T08:58:15.299Z,100457.91
2024-04-12T08:59:15.698Z,100461.27
2024-04-12T09:00:16.877Z,100466.36
2024-04-12T09:01:19.411Z,100460.17
2024-04-12T09:02:22.704Z,100463.78
2024-04-12T09:03:21.225Z,100460.1
2024-04-12T09:04:23.413Z,100472.53
2024-04-12T09:05:22.098Z,100464.55
2024-04-12T09:06:21.935Z,100465.92
2024-04-12T09:07:21.895Z,100468.78
2024-04-12T09:08:22.640Z,100461.86
2024-04-12T09:09:23.360Z,100471.2
2024-04-12T09:10:23.563Z,100467.41
2024-04-12T09:11:23.800Z,100464.81
2024-04-12T09:12:24.315Z,100474.97
2024-04-12T09:13:24.503Z,100470.36
2024-04-12T09:14:26.869Z,100469.72
2024-04-12T09:15:27.084Z,100468.91
2024-04-12T09:16:26.884Z,100470.53
2024-04-12T09:17:27.576Z,100467.17
2024-04-12T09:18:28.998Z,100465.34
2024-04-12T09:19:28.638Z,100470.72
2024-04-12T09:20:34.804Z,100464
2024-04-12T09:21:32.462Z,100471.18
2024-04-12T09:22:33.465Z,100471
2024-04-12T09:23:34.352Z,100473.88
2024-04-12T09:24:34.508Z,100473.64
2024-04-12T09:25:34.844Z,100472.72
2024-04-12T09:26:35.338Z,100483.66
2024-04-12T09:27:36.690Z,100467.09
2024-04-12T09:28:37.102Z,100478.58
2024-04-12T09:29:37.357Z,100481.27
2024-04-12T09:30:36.925Z,100477.17
2024-04-12T09:31:37.440Z,100478.81
2024-04-12T09:32:41.803Z,100480.73
2024-04-12T09:33:43.037Z,100484.96
2024-04-12T09:34:42.983Z,100472.29
2024-04-12T09:35:45.065Z,100475.47
2024-04-12T09:36:44.222Z,100476.49
2024-04-12T09:37:43.830Z,100474.73
2024-04-12T09:38:43.425Z,100478.49
2024-04-12T09:39:44.151Z,100478.88
2024-04-12T09:40:45.379Z,100480.12
2024-04-12T09:41:46.436Z,100480.24
2024-04-12T09:42:48.075Z,100475.69
2024-04-12T09:43:46.338Z,100478.94
2024-04-12T09:44:50.314Z,100478.67
2024-04-12T09:45:48.178Z,100478.42
2024-04-12T09:46:48.751Z,100477.03
2024-04-12T09:47:53.075Z,100476.62
2024-04-12T09:48:54.522Z,100476.43
2024-04-12T09:49:53.316Z,100481.52
2024-04-12T09:50:52.668Z,100478.41
2024-04-12T09:51:53.241Z,100482.28
2024-04-12T09:52:53.461Z,100485.86
2024-04-12T09:53:56.417Z,100491.27
2024-04-12T09:54:54.477Z,100492.34
2024-04-12T09:55:55.009Z,100491.21
2024-04-12T09:58:05.659Z,100489.16
2024-04-12T09:59:05.291Z,100493.03
2024-04-12T10:00:07.595Z,100495.14
2024-04-12T10:01:06.122Z,100490.23
2024-04-12T10:02:07.651Z,100490.84
2024-04-12T10:03:08.496Z,100491.16
2024-04-12T10:04:07.974Z,100499
2024-04-12T10:05:09.490Z,100487.77
2024-04-12T10:06:10.123Z,100490.78
2024-04-12T10:07:09.426Z,100491.98
2024-04-12T10:08:14.744Z,100491.18
2024-04-12T10:09:14.100Z,100492.3
2024-04-12T10:10:14.728Z,100487.89
2024-04-12T10:11:13.608Z,100493.81
2024-04-12T10:12:16.879Z,100485.17
2024-04-12T10:13:15.990Z,100489.54
2024-04-12T10:14:16.004Z,100491.11
2024-04-12T10:15:18.529Z,100490.95
2024-04-12T10:16:20.728Z,100495.95
2024-04-12T10:17:23.951Z,100483.52
2024-04-12T10:18:27.871Z,100490.7
2024-04-12T10:19:25.484Z,100497.43
2024-04-12T10:20:25.894Z,100485.88
2024-04-12T10:21:26.500Z,100489.8
2024-04-12T10:22:26.582Z,100488.05
2024-04-12T10:23:33.280Z,100493.11
2024-04-12T10:24:30.702Z,100490.76
2024-04-12T10:25:37.805Z,100489.81
2024-04-12T10:26:38.669Z,100500.78
2024-04-12T10:27:39.553Z,100496.62
2024-04-12T10:28:40.574Z,100494.63
2024-04-12T10:29:38.308Z,100486.41
2024-04-12T10:30:45.403Z,100489.3
2024-04-12T10:31:42.745Z,100488.16
2024-04-12T10:32:46.143Z,100501.53
2024-04-12T10:33:46.450Z,100497.2
2024-04-12T10:34:46.150Z,100497.38
2024-04-12T10:35:46.662Z,100498.14
2024-04-12T10:36:46.791Z,100499.32
2024-04-12T10:37:48.027Z,100508.58
2024-04-12T10:38:50.283Z,100503.98
2024-04-12T10:39:47.920Z,100503.36
2024-04-12T10:40:48.966Z,100502.48
2024-04-12T10:41:49.007Z,100505.69
2024-04-12T10:42:53.552Z,100509.05
2024-04-12T10:43:52.460Z,100512.36
2024-04-12T10:44:52.885Z,100506.5
2024-04-12T10:45:51.754Z,100510.11
2024-04-12T10:46:53.083Z,100510.53
2024-04-12T10:47:55.002Z,100511.73
2024-04-12T10:48:53.220Z,100512.52
2024-04-12T10:49:53.820Z,100511.76
2024-04-12T10:50:54.422Z,100528.41
2024-04-12T10:51:54.611Z,100525.7
2024-04-12T10:52:54.983Z,100524.6
2024-04-12T10:53:55.563Z,100517.84
2024-04-12T10:55:03.392Z,100522.33
2024-04-12T10:56:00.813Z,100529.52
2024-04-12T10:57:02.857Z,100523.69
2024-04-12T10:58:01.664Z,100518.36
2024-04-12T10:59:02.377Z,100522.58
2024-04-12T11:00:03.192Z,100519.58
2024-04-12T11:01:03.752Z,100520.95
2024-04-12T11:02:04.040Z,100526.84
2024-04-12T11:03:08.992Z,100515.2
2024-04-12T11:04:07.543Z,100523.22
2024-04-12T11:05:07.893Z,100526.16
2024-04-12T11:06:09.441Z,100519.09
2024-04-12T11:07:08.756Z,100516.27
2024-04-12T11:08:17.049Z,100514.84
2024-04-12T11:09:15.116Z,100511.37
2024-04-12T11:10:13.000Z,100519.52
2024-04-12T11:11:13.423Z,100515.94
2024-04-12T11:12:14.862Z,100513.23
2024-04-12T11:13:14.679Z,100518.59
2024-04-12T11:14:14.711Z,100516.97
2024-04-12T11:15:15.949Z,100523.56
2024-04-12T11:16:15.889Z,100510.08
2024-04-12T11:17:18.985Z,100506.83
2024-04-12T11:18:16.754Z,100513.26
2024-04-12T11:19:17.083Z,100503.05
2024-04-12T11:20:17.759Z,100511.34
2024-04-12T11:21:17.766Z,100520.48
2024-04-12T11:22:25.578Z,100510.46
2024-04-12T11:23:23.035Z,100511.51
2024-04-12T11:24:23.542Z,100499.2
2024-04-12T11:25:24.266Z,100513.59
2024-04-12T11:26:24.783Z,100500.91
2024-04-12T11:27:24.949Z,100506.09
2024-04-12T11:28:25.547Z,100506.46
2024-04-12T11:29:25.845Z,100506.42
2024-04-12T11:30:26.358Z,100515.66
2024-04-12T11:31:26.756Z,100524.53
2024-04-12T11:32:27.069Z,100520.55
2024-04-12T11:33:33.899Z,100523.92
2024-04-12T11:34:32.225Z,100525.11
2024-04-12T11:35:35.212Z,100506.3
2024-04-12T11:36:34.604Z,100512.25